createdAt,value
2023-03-16T00:02:01.546Z,12.02
2023-03-16T00:04:47.573Z,8.73
2023-03-16T00:07:30.694Z,11.20
2023-03-16T00:10:10.840Z,13.20
2023-03-16T00:12:54.649Z,15.65
2023-03-16T00:18:21.597Z,14.77
2023-03-16T00:21:02.833Z,8.57
2023-03-16T00:23:42.354Z,9.90
2023-03-16T00:26:23.186Z,11.52
2023-03-16T00:29:08.770Z,6.22
2023-03-16T00:31:52.482Z,9.52
2023-03-16T00:34:30.191Z,12.63
2023-03-16T00:37:18.685Z,11.80
2023-03-16T00:39:59.891Z,12.35
2023-03-16T00:42:44.648Z,8.73
2023-03-16T00:45:23.726Z,9.32
2023-03-16T00:48:09.757Z,6.60
2023-03-16T00:50:50.843Z,9.23
2023-03-16T00:53:30.456Z,12.00
2023-03-16T00:56:17.711Z,11.75
2023-03-16T00:59:05.911Z,14.45
2023-03-16T01:01:47.001Z,11.10
2023-03-16T01:04:32.702Z,6.10
2023-03-16T01:07:16.579Z,9.48
2023-03-16T01:10:02.946Z,11.88
2023-03-16T01:12:46.214Z,9.70
2023-03-16T01:15:27.376Z,9.23
2023-03-16T01:18:07.601Z,10.13
2023-03-16T01:20:50.592Z,10.48
2023-03-16T01:23:36.812Z,10.63
2023-03-16T01:26:12.898Z,8.60
2023-03-16T01:28:53.738Z,11.95
2023-03-16T01:31:39.685Z,11.77
2023-03-16T01:34:31.895Z,13.70
2023-03-16T01:37:12.677Z,10.70
2023-03-16T01:40:07.958Z,8.90
2023-03-16T01:43:02.526Z,12.63
2023-03-16T01:46:02.596Z,11.15
2023-03-16T01:48:57.711Z,11.57
2023-03-16T01:51:59.238Z,18.48
2023-03-16T01:54:51.334Z,9.55
2023-03-16T01:57:39.643Z,11.07
2023-03-16T02:00:24.020Z,19.58
2023-03-16T02:03:25.681Z,10.75
2023-03-16T02:06:23.356Z,12.52
2023-03-16T02:09:04.319Z,10.30
2023-03-16T02:11:44.780Z,13.13
2023-03-16T02:14:28.506Z,14.23
2023-03-16T02:17:14.495Z,14.80
2023-03-16T02:20:13.693Z,17.95
2023-03-16T02:22:57.473Z,12.70
2023-03-16T02:25:54.425Z,11.55
2023-03-16T02:28:48.745Z,17.02
2023-03-16T02:31:27.746Z,27.50
2023-03-16T02:34:11.471Z,12.80
2023-03-16T02:36:57.729Z,14.45
2023-03-16T02:39:36.834Z,15.55
2023-03-16T02:42:19.003Z,15.10
2023-03-16T02:45:06.307Z,12.82
2023-03-16T02:47:47.894Z,25.35
2023-03-16T02:50:47.701Z,13.77
2023-03-16T02:53:32.456Z,14.82
2023-03-16T02:56:09.576Z,10.00
2023-03-16T02:58:57.396Z,15.98
2023-03-16T03:01:35.086Z,14.50
2023-03-16T03:04:23.551Z,12.35
2023-03-16T03:07:05.034Z,16.48
2023-03-16T03:10:04.318Z,13.48
2023-03-16T03:12:51.164Z,20.02
2023-03-16T03:15:30.910Z,12.25
2023-03-16T03:18:17.577Z,17.45
2023-03-16T03:20:55.454Z,18.10
2023-03-16T03:23:42.309Z,17.73
2023-03-16T03:26:21.345Z,13.00
2023-03-16T03:29:04.938Z,20.70
2023-03-16T03:31:48.434Z,16.83
2023-03-16T03:34:26.712Z,14.13
2023-03-16T03:37:04.384Z,24.10
2023-03-16T03:39:46.312Z,17.67
2023-03-16T03:42:29.503Z,13.77
2023-03-16T03:45:14.169Z,24.05
2023-03-16T03:47:57.630Z,19.95
2023-03-16T03:53:35.311Z,21.10
2023-03-16T03:56:27.394Z,23.20
2023-03-16T03:59:08.209Z,21.60
2023-03-16T04:02:12.874Z,19.23
2023-03-16T04:04:58.084Z,12.68
2023-03-16T04:07:41.162Z,14.50
2023-03-16T04:10:31.225Z,11.77
2023-03-16T04:13:15.886Z,10.32
2023-03-16T04:16:01.939Z,22.80
2023-03-16T04:18:50.614Z,14.20
2023-03-16T04:21:35.580Z,14.45
2023-03-16T04:24:23.658Z,9.07
2023-03-16T04:27:08.572Z,17.45
2023-03-16T04:30:01.593Z,14.73
2023-03-16T04:32:36.804Z,15.10
2023-03-16T04:35:13.348Z,10.77
2023-03-16T04:38:12.201Z,15.88
2023-03-16T04:41:06.258Z,18.67
2023-03-16T04:43:53.736Z,19.33
2023-03-16T04:46:36.057Z,19.02
2023-03-16T04:49:22.020Z,26.08
2023-03-16T04:52:05.774Z,30.48
2023-03-16T04:54:50.450Z,45.80
2023-03-16T04:57:39.474Z,44.40
2023-03-16T05:00:25.296Z,62.00
2023-03-16T05:03:22.941Z,90.20
2023-03-16T05:06:09.590Z,79.10
2023-03-16T05:09:08.281Z,76.80
2023-03-16T05:11:45.992Z,82.95
2023-03-16T05:14:30.263Z,87.75
2023-03-16T05:17:22.306Z,84.22
2023-03-16T05:20:15.862Z,87.88
2023-03-16T05:23:03.386Z,93.13
2023-03-16T05:25:49.385Z,106.70
2023-03-16T05:28:32.545Z,117.75
2023-03-16T05:31:19.151Z,113.28
2023-03-16T05:34:04.916Z,126.82
2023-03-16T05:36:46.383Z,129.63
2023-03-16T05:39:28.849Z,139.80
2023-03-16T05:42:10.281Z,145.60
2023-03-16T05:45:11.528Z,165.93
2023-03-16T05:48:11.523Z,173.43
2023-03-16T05:51:09.600Z,220.75
2023-03-16T05:53:51.128Z,259.98
2023-03-16T05:56:49.275Z,268.00
2023-03-16T05:59:39.699Z,279.40
2023-03-16T06:02:23.621Z,235.18
2023-03-16T06:05:18.965Z,209.43
2023-03-16T06:08:03.694Z,190.38
2023-03-16T06:11:07.937Z,177.98
2023-03-16T06:13:46.464Z,141.82
2023-03-16T06:16:39.602Z,81.15
2023-03-16T06:19:23.776Z,33.38
2023-03-16T06:22:14.973Z,22.75
2023-03-16T06:24:54.273Z,24.73
2023-03-16T06:27:34.722Z,22.38
2023-03-16T06:30:32.566Z,17.15
2023-03-16T06:33:15.964Z,22.35
2023-03-16T06:36:03.981Z,18.77
2023-03-16T06:38:55.594Z,19.00
2023-03-16T06:41:38.801Z,20.40
2023-03-16T06:44:21.708Z,26.02
2023-03-16T06:47:29.377Z,19.73
2023-03-16T06:50:09.459Z,25.92
2023-03-16T06:53:00.229Z,18.30
2023-03-16T06:55:51.500Z,21.63
2023-03-16T06:58:35.038Z,15.05
2023-03-16T07:01:20.268Z,17.77
2023-03-16T07:03:58.612Z,19.10
2023-03-16T07:06:48.940Z,16.48
2023-03-16T07:09:27.957Z,11.98
2023-03-16T07:12:10.694Z,11.13
2023-03-16T07:15:00.013Z,11.20
2023-03-16T07:17:51.638Z,15.43
2023-03-16T07:20:32.272Z,9.73
2023-03-16T07:23:13.490Z,11.60
2023-03-16T07:25:54.856Z,14.68
2023-03-16T07:28:33.164Z,8.82
2023-03-16T07:31:25.347Z,11.07
2023-03-16T07:34:09.842Z,8.38
2023-03-16T07:36:52.840Z,10.20
2023-03-16T07:39:46.768Z,16.48
2023-03-16T07:42:35.651Z,14.25
2023-03-16T07:45:34.458Z,10.35
2023-03-16T07:48:25.339Z,17.58
2023-03-16T07:51:05.015Z,11.20
2023-03-16T07:53:47.344Z,13.70
2023-03-16T07:56:49.365Z,9.00
2023-03-16T07:59:53.814Z,9.10
2023-03-16T08:02:35.280Z,9.48
2023-03-16T08:05:15.535Z,8.82
2023-03-16T08:07:58.551Z,10.98
2023-03-16T08:10:44.207Z,13.68
2023-03-16T08:13:38.412Z,9.27
2023-03-16T08:16:22.348Z,12.60
2023-03-16T08:19:05.515Z,8.50
2023-03-16T08:22:01.258Z,7.32
2023-03-16T08:24:46.839Z,7.85
2023-03-16T08:27:27.525Z,11.18
2023-03-16T08:30:12.025Z,10.80
2023-03-16T08:33:04.601Z,9.00
2023-03-16T08:35:50.422Z,12.13
2023-03-16T08:38:32.398Z,8.70
2023-03-16T08:41:17.160Z,7.65
2023-03-16T08:44:03.520Z,9.07
2023-03-16T08:46:45.036Z,8.63
2023-03-16T08:49:34.287Z,9.13
2023-03-16T08:52:23.785Z,9.98
2023-03-16T08:55:03.797Z,8.25
2023-03-16T08:57:47.179Z,8.00
2023-03-16T09:00:28.460Z,7.60
2023-03-16T09:03:07.331Z,10.10
2023-03-16T09:05:45.252Z,7.88
2023-03-16T09:08:31.350Z,8.80
2023-03-16T09:11:21.512Z,10.23
2023-03-16T09:14:02.828Z,10.90
2023-03-16T09:16:43.209Z,8.85
2023-03-16T09:19:20.085Z,8.75
2023-03-16T09:22:08.601Z,9.23
2023-03-16T09:24:49.470Z,9.40
2023-03-16T09:30:29.812Z,9.73
2023-03-16T09:33:10.381Z,7.57
2023-03-16T09:35:58.146Z,7.65
2023-03-16T09:38:37.480Z,7.40
2023-03-16T09:41:30.924Z,8.05
2023-03-16T09:44:39.149Z,9.20
2023-03-16T09:47:16.789Z,5.72
2023-03-16T09:50:09.910Z,8.30
2023-03-16T09:53:05.360Z,7.20
2023-03-16T09:55:57.454Z,7.70
2023-03-16T09:58:47.182Z,7.93
2023-03-16T10:01:47.144Z,8.88
2023-03-16T10:04:45.172Z,9.20
2023-03-16T10:07:48.694Z,8.02
2023-03-16T10:10:53.553Z,7.65
2023-03-16T10:14:14.261Z,8.98
2023-03-16T10:17:01.090Z,6.80
2023-03-16T10:19:49.859Z,7.70
2023-03-16T10:22:41.114Z,7.35
2023-03-16T10:25:52.333Z,7.90
2023-03-16T10:28:40.996Z,6.43
2023-03-16T10:31:31.459Z,7.80
2023-03-16T10:34:15.618Z,7.65
2023-03-16T10:36:58.452Z,5.80
2023-03-16T10:39:44.278Z,8.52
2023-03-16T10:42:27.548Z,6.28
2023-03-16T10:45:20.069Z,7.18
2023-03-16T10:48:10.335Z,10.02
2023-03-16T10:50:54.619Z,7.20
2023-03-16T10:53:42.372Z,6.15
2023-03-16T10:56:38.489Z,7.70
2023-03-16T10:59:49.059Z,7.63
2023-03-16T11:02:30.525Z,6.40
2023-03-16T11:05:28.285Z,6.55
2023-03-16T11:08:18.893Z,6.10
2023-03-16T11:11:02.818Z,4.53
2023-03-16T11:13:54.290Z,8.43
2023-03-16T11:16:52.372Z,6.40
2023-03-16T11:19:59.688Z,4.65
2023-03-16T11:22:42.243Z,6.35
2023-03-16T11:25:30.790Z,4.75
2023-03-16T11:28:28.231Z,4.15
2023-03-16T11:31:35.145Z,4.97
2023-03-16T11:37:03.219Z,10.30
2023-03-16T11:40:06.562Z,3.53
2023-03-16T11:42:47.071Z,5.85
2023-03-16T11:45:45.755Z,4.00
2023-03-16T11:48:36.792Z,5.07
2023-03-16T11:51:44.619Z,4.77
2023-03-16T11:54:59.956Z,5.13
2023-03-16T11:58:04.613Z,4.78
2023-03-16T12:04:18.470Z,4.75
2023-03-16T12:07:13.199Z,4.63
2023-03-16T12:10:26.834Z,2.85
2023-03-16T12:13:33.824Z,4.65
2023-03-16T12:16:25.170Z,4.00
2023-03-16T12:19:10.796Z,4.35
2023-03-16T12:21:53.699Z,7.00
2023-03-16T12:24:37.351Z,5.85
2023-03-16T12:27:39.163Z,3.97
2023-03-16T12:30:37.200Z,3.35
2023-03-16T12:33:47.526Z,5.68
2023-03-16T12:37:02.832Z,5.28
2023-03-16T12:39:41.268Z,3.88
2023-03-16T12:42:49.993Z,3.78
2023-03-16T12:45:46.248Z,5.72
2023-03-16T12:48:46.290Z,3.88
2023-03-16T12:51:21.462Z,3.35
2023-03-16T12:54:03.286Z,4.70
2023-03-16T12:56:50.651Z,8.48
2023-03-16T12:59:46.892Z,5.72
2023-03-16T13:02:45.564Z,8.73
2023-03-16T13:05:51.038Z,3.50
2023-03-16T13:08:26.101Z,5.95
2023-03-16T13:11:30.264Z,5.43
2023-03-16T13:14:33.810Z,3.72
2023-03-16T13:17:25.129Z,3.90
2023-03-16T13:20:42.743Z,4.93
2023-03-16T13:23:31.623Z,5.15
2023-03-16T13:26:22.009Z,3.63
2023-03-16T13:29:08.039Z,7.45
2023-03-16T13:31:55.283Z,7.15
2023-03-16T13:34:51.814Z,5.00
2023-03-16T13:37:42.687Z,6.82
2023-03-16T13:40:38.039Z,4.35
2023-03-16T13:43:22.195Z,8.20
2023-03-16T13:46:05.395Z,6.30
2023-03-16T13:48:49.093Z,6.07
2023-03-16T13:51:36.079Z,5.53
2023-03-16T13:54:37.832Z,4.50
2023-03-16T13:57:20.633Z,4.10
2023-03-16T14:00:06.830Z,2.50
2023-03-16T14:02:55.708Z,5.68
2023-03-16T14:05:40.702Z,4.10
2023-03-16T14:08:29.851Z,4.35
2023-03-16T14:11:09.042Z,3.72
2023-03-16T14:14:00.244Z,4.68
2023-03-16T14:16:40.441Z,5.18
2023-03-16T14:19:38.227Z,4.05
2023-03-16T14:22:19.028Z,5.50
2023-03-16T14:25:05.814Z,5.30
2023-03-16T14:28:05.692Z,7.22
2023-03-16T14:30:55.222Z,3.17
2023-03-16T14:33:42.119Z,6.07
2023-03-16T14:36:22.115Z,6.45
2023-03-16T14:39:09.636Z,5.07
2023-03-16T14:41:49.922Z,7.03
2023-03-16T14:44:40.796Z,4.47
2023-03-16T14:47:28.196Z,3.63
2023-03-16T14:50:26.165Z,7.95
2023-03-16T14:53:07.758Z,7.40
2023-03-16T14:55:48.498Z,7.20
2023-03-16T14:58:26.172Z,6.78
2023-03-16T15:01:14.990Z,5.45
2023-03-16T15:03:53.546Z,5.05
2023-03-16T15:06:32.908Z,5.07
2023-03-16T15:09:31.639Z,2.88
2023-03-16T15:12:26.705Z,3.15
2023-03-16T15:15:17.722Z,3.42
2023-03-16T15:17:58.060Z,4.93
2023-03-16T15:20:50.062Z,8.98
2023-03-16T15:23:34.369Z,7.20
2023-03-16T15:26:21.945Z,5.00
2023-03-16T15:29:07.530Z,4.78
2023-03-16T15:31:47.979Z,3.92
2023-03-16T15:34:30.639Z,8.23
2023-03-16T15:37:23.462Z,6.93
2023-03-16T15:40:04.834Z,4.72
2023-03-16T15:42:47.983Z,6.20
2023-03-16T15:45:31.506Z,5.45
2023-03-16T15:48:23.551Z,4.97
2023-03-16T15:51:16.229Z,4.95
2023-03-16T15:53:59.565Z,10.05
2023-03-16T15:56:50.996Z,5.72
2023-03-16T15:59:38.167Z,5.43
2023-03-16T16:02:35.186Z,3.95
2023-03-16T16:05:20.922Z,6.65
2023-03-16T16:08:09.162Z,4.82
2023-03-16T16:11:12.159Z,8.43
2023-03-16T16:13:49.404Z,8.07
2023-03-16T16:16:37.371Z,7.28
2023-03-16T16:19:27.841Z,7.00
2023-03-16T16:22:13.190Z,10.35
2023-03-16T16:24:56.990Z,12.48
2023-03-16T16:27:32.350Z,5.00
2023-03-16T16:30:14.492Z,8.48
2023-03-16T16:32:50.271Z,9.00
2023-03-16T16:35:31.961Z,9.40
2023-03-16T16:38:16.142Z,9.38
2023-03-16T16:40:58.593Z,16.52
2023-03-16T16:43:47.753Z,12.75
2023-03-16T16:46:29.364Z,13.32
2023-03-16T16:49:23.175Z,15.70
2023-03-16T16:52:01.800Z,28.15
2023-03-16T16:54:37.019Z,25.50
2023-03-16T16:57:25.208Z,20.73
2023-03-16T17:00:10.138Z,22.35
2023-03-16T17:02:57.563Z,23.27
2023-03-16T17:05:35.484Z,21.08
2023-03-16T17:08:25.122Z,24.27
2023-03-16T17:11:07.210Z,35.78
2023-03-16T17:13:48.338Z,21.88
2023-03-16T17:16:33.361Z,28.42
2023-03-16T17:19:23.346Z,23.38
2023-03-16T17:22:02.542Z,26.00
2023-03-16T17:24:46.104Z,16.50
2023-03-16T17:27:29.639Z,8.82
2023-03-16T17:30:08.318Z,7.97
2023-03-16T17:32:46.849Z,9.95
2023-03-16T17:35:30.788Z,7.65
2023-03-16T17:38:18.250Z,9.52
2023-03-16T17:41:00.947Z,8.32
2023-03-16T17:43:41.318Z,9.52
2023-03-16T17:46:25.577Z,7.20
2023-03-16T17:49:03.425Z,10.73
2023-03-16T17:51:39.828Z,6.70
2023-03-16T17:54:15.877Z,9.18
2023-03-16T17:56:58.445Z,12.80
2023-03-16T17:59:35.619Z,11.52
2023-03-16T18:02:35.184Z,16.55
2023-03-16T18:05:29.620Z,10.63
2023-03-16T18:08:30.593Z,10.07
2023-03-16T18:11:20.632Z,8.88
2023-03-16T18:14:08.573Z,12.57
2023-03-16T18:16:52.406Z,11.27
2023-03-16T18:22:35.689Z,13.23
2023-03-16T18:25:44.806Z,9.70
2023-03-16T18:28:28.173Z,8.02
2023-03-16T18:31:20.396Z,10.23
2023-03-16T18:33:59.824Z,8.93
2023-03-16T18:36:45.891Z,10.77
2023-03-16T18:39:27.972Z,5.70
2023-03-16T18:42:09.261Z,10.30
2023-03-16T18:44:50.220Z,12.70
2023-03-16T18:50:31.178Z,30.95
2023-03-16T18:53:11.815Z,45.20
2023-03-16T18:55:52.038Z,77.40
2023-03-16T18:58:41.584Z,85.60
2023-03-16T19:01:29.652Z,78.65
2023-03-16T19:04:10.826Z,76.38
2023-03-16T19:06:54.154Z,67.55
2023-03-16T19:09:36.068Z,60.28
2023-03-16T19:12:19.404Z,66.75
2023-03-16T19:15:15.862Z,59.55
2023-03-16T19:17:50.139Z,50.90
2023-03-16T19:20:40.674Z,37.17
2023-03-16T19:23:33.786Z,35.45
2023-03-16T19:26:08.263Z,26.85
2023-03-16T19:28:50.151Z,22.30
2023-03-16T19:31:41.879Z,29.98
2023-03-16T19:34:27.364Z,22.75
2023-03-16T19:37:15.826Z,32.13
2023-03-16T19:39:59.136Z,25.88
2023-03-16T19:42:42.327Z,17.95
2023-03-16T19:45:29.899Z,18.48
2023-03-16T19:48:24.185Z,19.88
2023-03-16T19:53:56.295Z,29.48
2023-03-16T19:56:36.866Z,19.70
2023-03-16T19:59:35.640Z,20.88
2023-03-16T20:02:38.878Z,20.75
2023-03-16T20:05:18.588Z,46.05
2023-03-16T20:08:08.759Z,35.90
2023-03-16T20:10:43.491Z,40.83
2023-03-16T20:13:24.541Z,62.40
2023-03-16T20:16:00.972Z,72.95
2023-03-16T20:18:35.839Z,62.05
2023-03-16T20:21:21.320Z,53.30
2023-03-16T20:24:11.637Z,45.83
2023-03-16T20:26:47.910Z,46.05
2023-03-16T20:29:42.308Z,45.92
2023-03-16T20:32:32.948Z,49.63
2023-03-16T20:35:23.170Z,35.25
2023-03-16T20:37:58.264Z,39.10
2023-03-16T20:40:49.482Z,42.05
2023-03-16T20:43:44.324Z,47.28
2023-03-16T20:46:27.750Z,51.80
2023-03-16T20:49:02.441Z,55.67
2023-03-16T20:51:51.116Z,40.85
2023-03-16T20:54:37.494Z,58.97
2023-03-16T20:57:24.102Z,51.92
2023-03-16T21:00:02.604Z,48.03
2023-03-16T21:02:41.450Z,46.30
2023-03-16T21:05:30.020Z,51.22
2023-03-16T21:08:08.965Z,59.47
2023-03-16T21:10:50.925Z,60.17
2023-03-16T21:13:33.166Z,67.15
2023-03-16T21:16:08.910Z,56.03
2023-03-16T21:18:49.830Z,70.80
2023-03-16T21:21:27.544Z,67.65
2023-03-16T21:24:08.165Z,65.90
2023-03-16T21:26:55.119Z,69.72
2023-03-16T21:29:30.254Z,62.15
2023-03-16T21:35:18.673Z,32.15
2023-03-16T21:37:59.617Z,27.02
2023-03-16T21:40:39.564Z,26.02
2023-03-16T21:43:17.708Z,21.88
2023-03-16T21:46:04.123Z,23.75
2023-03-16T21:48:46.947Z,25.70
2023-03-16T21:51:29.441Z,21.87
2023-03-16T21:54:17.838Z,20.83
2023-03-16T21:56:59.790Z,22.52
2023-03-16T21:59:54.447Z,24.13
2023-03-16T22:02:34.853Z,25.83
2023-03-16T22:05:30.621Z,30.15
2023-03-16T22:08:29.069Z,29.65
2023-03-16T22:11:08.601Z,40.63
2023-03-16T22:14:03.043Z,37.10
2023-03-16T22:16:47.810Z,34.20
2023-03-16T22:19:38.784Z,31.05
2023-03-16T22:22:23.050Z,25.35
2023-03-16T22:25:05.672Z,36.78
2023-03-16T22:27:48.266Z,31.65
2023-03-16T22:30:34.250Z,26.30
2023-03-16T22:33:21.803Z,27.63
2023-03-16T22:36:16.647Z,26.63
2023-03-16T22:39:00.094Z,23.70
2023-03-16T22:41:44.147Z,28.35
2023-03-16T22:44:37.247Z,24.45
2023-03-16T22:47:37.107Z,23.38
2023-03-16T22:50:25.146Z,28.05
2023-03-16T22:53:16.540Z,28.13
2023-03-16T22:56:02.336Z,27.23
2023-03-16T22:59:00.329Z,29.42
2023-03-16T23:01:52.473Z,29.10
2023-03-16T23:04:30.522Z,37.88
2023-03-16T23:07:12.953Z,32.35
2023-03-16T23:09:56.931Z,54.42
2023-03-16T23:12:40.348Z,50.08
2023-03-16T23:15:32.691Z,40.92
2023-03-16T23:18:18.149Z,34.70
2023-03-16T23:20:54.400Z,33.97
2023-03-16T23:23:35.439Z,34.20
2023-03-16T23:26:23.340Z,35.50
2023-03-16T23:29:05.617Z,32.13
2023-03-16T23:31:57.013Z,30.05
2023-03-16T23:34:46.470Z,21.50
2023-03-16T23:37:30.742Z,31.30
2023-03-16T23:40:12.096Z,32.17
2023-03-16T23:42:52.186Z,28.90
2023-03-16T23:45:40.874Z,33.63
2023-03-16T23:48:25.698Z,31.92
2023-03-16T23:51:07.389Z,26.60
2023-03-16T23:53:54.733Z,29.52
2023-03-16T23:56:41.590Z,36.17
2023-03-16T23:59:22.258Z,30.23
